sensor_id;sensor_type;location;lat;lon;timestamp;temperature;humidity
9118;DHT22;4594;50.994;7.126;2022-07-18T00:02:03;21.50;28.20
9118;DHT22;4594;50.994;7.126;2022-07-18T00:04:29;21.50;28.20
9118;DHT22;4594;50.994;7.126;2022-07-18T00:06:55;21.40;28.20
9118;DHT22;4594;50.994;7.126;2022-07-18T00:09:21;21.40;28.20
9118;DHT22;4594;50.994;7.126;2022-07-18T00:11:49;21.40;28.30
9118;DHT22;4594;50.994;7.126;2022-07-18T00:14:16;21.30;28.20
9118;DHT22;4594;50.994;7.126;2022-07-18T00:16:42;21.30;28.20
9118;DHT22;4594;50.994;7.126;2022-07-18T00:19:08;21.30;28.20
9118;DHT22;4594;50.994;7.126;2022-07-18T00:21:34;21.30;28.20
9118;DHT22;4594;50.994;7.126;2022-07-18T00:24:00;21.20;28.20
9118;DHT22;4594;50.994;7.126;2022-07-18T00:26:26;21.20;28.20
9118;DHT22;4594;50.994;7.126;2022-07-18T00:28:52;21.20;28.20
9118;DHT22;4594;50.994;7.126;2022-07-18T00:31:18;21.20;28.30
9118;DHT22;4594;50.994;7.126;2022-07-18T00:33:43;21.20;28.30
9118;DHT22;4594;50.994;7.126;2022-07-18T00:36:10;21.20;28.30
9118;DHT22;4594;50.994;7.126;2022-07-18T00:38:36;21.10;28.20
9118;DHT22;4594;50.994;7.126;2022-07-18T00:41:02;21.10;28.20
9118;DHT22;4594;50.994;7.126;2022-07-18T00:43:28;21.10;28.30
9118;DHT22;4594;50.994;7.126;2022-07-18T00:45:54;21.00;28.30
9118;DHT22;4594;50.994;7.126;2022-07-18T00:48:20;21.00;28.30
9118;DHT22;4594;50.994;7.126;2022-07-18T00:50:46;21.00;28.20
9118;DHT22;4594;50.994;7.126;2022-07-18T00:53:13;20.90;28.20
9118;DHT22;4594;50.994;7.126;2022-07-18T00:55:42;20.90;28.30
9118;DHT22;4594;50.994;7.126;2022-07-18T00:58:10;20.90;28.20
9118;DHT22;4594;50.994;7.126;2022-07-18T01:00:38;20.80;28.20
9118;DHT22;4594;50.994;7.126;2022-07-18T01:03:23;20.90;28.30
9118;DHT22;4594;50.994;7.126;2022-07-18T01:05:48;20.80;28.20
9118;DHT22;4594;50.994;7.126;2022-07-18T01:08:15;20.80;28.30
9118;DHT22;4594;50.994;7.126;2022-07-18T01:10:41;20.80;28.30
9118;DHT22;4594;50.994;7.126;2022-07-18T01:13:06;20.70;28.30
9118;DHT22;4594;50.994;7.126;2022-07-18T01:15:32;20.70;28.30
9118;DHT22;4594;50.994;7.126;2022-07-18T01:17:58;20.70;28.30
9118;DHT22;4594;50.994;7.126;2022-07-18T01:20:28;20.60;28.30
9118;DHT22;4594;50.994;7.126;2022-07-18T01:22:56;20.60;28.40
9118;DHT22;4594;50.994;7.126;2022-07-18T01:25:22;20.60;28.30
9118;DHT22;4594;50.994;7.126;2022-07-18T01:27:48;20.60;28.30
9118;DHT22;4594;50.994;7.126;2022-07-18T01:30:14;20.50;28.30
9118;DHT22;4594;50.994;7.126;2022-07-18T01:32:41;20.60;28.40
9118;DHT22;4594;50.994;7.126;2022-07-18T01:35:08;20.50;28.30
9118;DHT22;4594;50.994;7.126;2022-07-18T01:37:34;20.40;28.30
9118;DHT22;4594;50.994;7.126;2022-07-18T01:39:59;20.40;28.50
9118;DHT22;4594;50.994;7.126;2022-07-18T01:42:25;20.40;28.30
9118;DHT22;4594;50.994;7.126;2022-07-18T01:44:51;20.40;28.30
9118;DHT22;4594;50.994;7.126;2022-07-18T01:47:16;20.40;28.30
9118;DHT22;4594;50.994;7.126;2022-07-18T01:49:42;20.40;28.30
9118;DHT22;4594;50.994;7.126;2022-07-18T01:52:09;20.40;28.30
9118;DHT22;4594;50.994;7.126;2022-07-18T01:54:36;20.40;28.30
9118;DHT22;4594;50.994;7.126;2022-07-18T01:57:04;20.40;28.40
9118;DHT22;4594;50.994;7.126;2022-07-18T01:59:31;20.40;28.40
9118;DHT22;4594;50.994;7.126;2022-07-18T02:01:57;20.30;28.40
9118;DHT22;4594;50.994;7.126;2022-07-18T02:04:23;20.30;28.30
9118;DHT22;4594;50.994;7.126;2022-07-18T02:07:09;20.30;28.30
9118;DHT22;4594;50.994;7.126;2022-07-18T02:09:34;20.30;28.30
9118;DHT22;4594;50.994;7.126;2022-07-18T02:12:00;20.30;28.30
9118;DHT22;4594;50.994;7.126;2022-07-18T02:14:26;20.30;28.40
9118;DHT22;4594;50.994;7.126;2022-07-18T02:16:51;20.30;28.40
9118;DHT22;4594;50.994;7.126;2022-07-18T02:19:17;20.20;28.30
9118;DHT22;4594;50.994;7.126;2022-07-18T02:21:43;20.10;28.30
9118;DHT22;4594;50.994;7.126;2022-07-18T02:24:08;20.10;28.30
9118;DHT22;4594;50.994;7.126;2022-07-18T02:26:34;20.10;28.40
9118;DHT22;4594;50.994;7.126;2022-07-18T02:29:00;20.10;28.40
9118;DHT22;4594;50.994;7.126;2022-07-18T02:31:25;20.10;28.40
9118;DHT22;4594;50.994;7.126;2022-07-18T02:33:51;20.00;28.40
9118;DHT22;4594;50.994;7.126;2022-07-18T02:36:17;19.90;28.40
9118;DHT22;4594;50.994;7.126;2022-07-18T02:41:10;19.80;28.30
9118;DHT22;4594;50.994;7.126;2022-07-18T02:43:36;19.80;28.40
9118;DHT22;4594;50.994;7.126;2022-07-18T02:46:02;19.70;28.40
9118;DHT22;4594;50.994;7.126;2022-07-18T02:48:29;19.70;28.40
9118;DHT22;4594;50.994;7.126;2022-07-18T02:50:54;19.70;28.50
9118;DHT22;4594;50.994;7.126;2022-07-18T02:53:20;19.60;28.40
9118;DHT22;4594;50.994;7.126;2022-07-18T02:55:49;19.50;28.40
9118;DHT22;4594;50.994;7.126;2022-07-18T02:58:16;19.50;28.50
9118;DHT22;4594;50.994;7.126;2022-07-18T03:00:42;19.40;28.50
9118;DHT22;4594;50.994;7.126;2022-07-18T03:03:08;19.40;28.60
9118;DHT22;4594;50.994;7.126;2022-07-18T03:05:34;19.40;28.60
9118;DHT22;4594;50.994;7.126;2022-07-18T03:08:00;19.30;28.60
9118;DHT22;4594;50.994;7.126;2022-07-18T03:10:26;19.30;28.70
9118;DHT22;4594;50.994;7.126;2022-07-18T03:12:51;19.20;28.70
9118;DHT22;4594;50.994;7.126;2022-07-18T03:15:17;19.20;28.80
9118;DHT22;4594;50.994;7.126;2022-07-18T03:17:43;19.10;28.70
9118;DHT22;4594;50.994;7.126;2022-07-18T03:20:09;19.00;28.70
9118;DHT22;4594;50.994;7.126;2022-07-18T03:22:35;19.00;28.80
9118;DHT22;4594;50.994;7.126;2022-07-18T03:25:01;19.00;28.80
9118;DHT22;4594;50.994;7.126;2022-07-18T03:27:26;18.90;28.80
9118;DHT22;4594;50.994;7.126;2022-07-18T03:29:52;18.80;28.80
9118;DHT22;4594;50.994;7.126;2022-07-18T03:32:18;18.80;28.90
9118;DHT22;4594;50.994;7.126;2022-07-18T03:34:44;18.80;28.90
9118;DHT22;4594;50.994;7.126;2022-07-18T03:37:10;18.70;28.90
9118;DHT22;4594;50.994;7.126;2022-07-18T03:39:35;18.70;28.90
9118;DHT22;4594;50.994;7.126;2022-07-18T03:42:01;18.70;28.90
9118;DHT22;4594;50.994;7.126;2022-07-18T03:44:27;18.60;28.90
9118;DHT22;4594;50.994;7.126;2022-07-18T03:46:53;18.60;29.00
9118;DHT22;4594;50.994;7.126;2022-07-18T03:49:19;18.60;29.00
9118;DHT22;4594;50.994;7.126;2022-07-18T03:51:45;18.60;29.00
9118;DHT22;4594;50.994;7.126;2022-07-18T03:54:11;18.50;29.00
9118;DHT22;4594;50.994;7.126;2022-07-18T03:56:37;18.40;29.00
9118;DHT22;4594;50.994;7.126;2022-07-18T03:59:03;18.50;29.00
9118;DHT22;4594;50.994;7.126;2022-07-18T04:01:29;18.40;29.10
9118;DHT22;4594;50.994;7.126;2022-07-18T04:03:55;18.40;29.10
9118;DHT22;4594;50.994;7.126;2022-07-18T04:06:21;18.40;29.10
9118;DHT22;4594;50.994;7.126;2022-07-18T04:08:47;18.30;29.10
9118;DHT22;4594;50.994;7.126;2022-07-18T04:11:13;18.30;29.20
9118;DHT22;4594;50.994;7.126;2022-07-18T04:13:38;18.30;29.20
9118;DHT22;4594;50.994;7.126;2022-07-18T04:16:04;18.20;29.20
9118;DHT22;4594;50.994;7.126;2022-07-18T04:18:30;18.20;29.20
9118;DHT22;4594;50.994;7.126;2022-07-18T04:20:56;18.20;29.30
9118;DHT22;4594;50.994;7.126;2022-07-18T04:23:22;18.10;29.30
9118;DHT22;4594;50.994;7.126;2022-07-18T04:25:48;18.30;29.40
9118;DHT22;4594;50.994;7.126;2022-07-18T04:28:14;18.10;29.40
9118;DHT22;4594;50.994;7.126;2022-07-18T04:30:41;18.20;29.50
9118;DHT22;4594;50.994;7.126;2022-07-18T04:33:08;18.10;29.50
9118;DHT22;4594;50.994;7.126;2022-07-18T04:35:36;18.10;29.60
9118;DHT22;4594;50.994;7.126;2022-07-18T04:38:03;18.10;29.60
9118;DHT22;4594;50.994;7.126;2022-07-18T04:40:30;18.10;29.60
9118;DHT22;4594;50.994;7.126;2022-07-18T04:42:55;18.10;29.70
9118;DHT22;4594;50.994;7.126;2022-07-18T04:45:21;18.10;29.70
9118;DHT22;4594;50.994;7.126;2022-07-18T04:47:52;18.10;29.60
9118;DHT22;4594;50.994;7.126;2022-07-18T04:50:19;18.10;29.80
9118;DHT22;4594;50.994;7.126;2022-07-18T04:52:46;18.10;29.80
9118;DHT22;4594;50.994;7.126;2022-07-18T04:55:14;18.20;29.90
9118;DHT22;4594;50.994;7.126;2022-07-18T04:57:42;18.20;29.90
9118;DHT22;4594;50.994;7.126;2022-07-18T05:00:11;18.20;29.90
9118;DHT22;4594;50.994;7.126;2022-07-18T05:02:40;18.30;30.00
9118;DHT22;4594;50.994;7.126;2022-07-18T05:05:07;18.30;30.00
9118;DHT22;4594;50.994;7.126;2022-07-18T05:07:35;18.50;30.20
9118;DHT22;4594;50.994;7.126;2022-07-18T05:10:02;18.60;30.40
9118;DHT22;4594;50.994;7.126;2022-07-18T05:12:35;18.70;30.60
9118;DHT22;4594;50.994;7.126;2022-07-18T05:15:10;18.90;30.70
9118;DHT22;4594;50.994;7.126;2022-07-18T05:17:41;19.20;30.90
9118;DHT22;4594;50.994;7.126;2022-07-18T05:20:10;19.40;30.90
9118;DHT22;4594;50.994;7.126;2022-07-18T05:22:38;19.70;31.10
9118;DHT22;4594;50.994;7.126;2022-07-18T05:25:05;20.10;31.30
9118;DHT22;4594;50.994;7.126;2022-07-18T05:27:32;20.30;31.30
9118;DHT22;4594;50.994;7.126;2022-07-18T05:29:58;20.60;31.20
9118;DHT22;4594;50.994;7.126;2022-07-18T05:32:25;21.00;31.20
9118;DHT22;4594;50.994;7.126;2022-07-18T05:34:51;21.30;31.00
9118;DHT22;4594;50.994;7.126;2022-07-18T05:37:17;21.70;31.10
9118;DHT22;4594;50.994;7.126;2022-07-18T05:39:43;22.00;31.10
9118;DHT22;4594;50.994;7.126;2022-07-18T05:42:09;22.30;31.10
9118;DHT22;4594;50.994;7.126;2022-07-18T05:44:35;22.60;31.10
9118;DHT22;4594;50.994;7.126;2022-07-18T05:47:00;22.90;31.50
9118;DHT22;4594;50.994;7.126;2022-07-18T05:49:26;23.20;31.10
9118;DHT22;4594;50.994;7.126;2022-07-18T05:51:52;23.50;31.20
9118;DHT22;4594;50.994;7.126;2022-07-18T05:54:18;23.90;31.20
9118;DHT22;4594;50.994;7.126;2022-07-18T05:56:49;24.20;31.20
9118;DHT22;4594;50.994;7.126;2022-07-18T05:59:16;24.50;31.00
9118;DHT22;4594;50.994;7.126;2022-07-18T06:01:43;24.90;31.30
9118;DHT22;4594;50.994;7.126;2022-07-18T06:04:09;25.20;31.20
9118;DHT22;4594;50.994;7.126;2022-07-18T06:06:35;25.50;31.40
9118;DHT22;4594;50.994;7.126;2022-07-18T06:09:01;25.90;31.10
9118;DHT22;4594;50.994;7.126;2022-07-18T06:11:27;26.20;30.90
9118;DHT22;4594;50.994;7.126;2022-07-18T06:13:53;26.60;31.00
9118;DHT22;4594;50.994;7.126;2022-07-18T06:16:19;26.90;30.90
9118;DHT22;4594;50.994;7.126;2022-07-18T06:18:44;27.30;30.80
9118;DHT22;4594;50.994;7.126;2022-07-18T06:21:10;27.60;30.60
9118;DHT22;4594;50.994;7.126;2022-07-18T06:23:36;28.00;30.60
9118;DHT22;4594;50.994;7.126;2022-07-18T06:26:02;28.30;30.50
9118;DHT22;4594;50.994;7.126;2022-07-18T06:28:28;28.70;30.40
9118;DHT22;4594;50.994;7.126;2022-07-18T06:30:54;29.00;30.30
9118;DHT22;4594;50.994;7.126;2022-07-18T06:33:20;29.30;30.10
9118;DHT22;4594;50.994;7.126;2022-07-18T06:35:47;29.70;30.20
9118;DHT22;4594;50.994;7.126;2022-07-18T06:38:13;30.00;30.00
9118;DHT22;4594;50.994;7.126;2022-07-18T06:40:41;30.30;30.00
9118;DHT22;4594;50.994;7.126;2022-07-18T06:43:07;30.60;29.80
9118;DHT22;4594;50.994;7.126;2022-07-18T06:45:33;30.90;29.70
9118;DHT22;4594;50.994;7.126;2022-07-18T06:47:59;31.20;29.70
9118;DHT22;4594;50.994;7.126;2022-07-18T06:50:25;31.50;29.80
9118;DHT22;4594;50.994;7.126;2022-07-18T06:52:51;31.70;29.50
9118;DHT22;4594;50.994;7.126;2022-07-18T06:55:17;31.90;29.50
9118;DHT22;4594;50.994;7.126;2022-07-18T06:57:43;32.10;29.40
9118;DHT22;4594;50.994;7.126;2022-07-18T07:00:10;32.30;29.30
9118;DHT22;4594;50.994;7.126;2022-07-18T07:02:44;32.60;29.40
9118;DHT22;4594;50.994;7.126;2022-07-18T07:05:13;32.80;29.20
9118;DHT22;4594;50.994;7.126;2022-07-18T07:07:41;33.10;29.30
9118;DHT22;4594;50.994;7.126;2022-07-18T07:10:07;33.30;29.20
9118;DHT22;4594;50.994;7.126;2022-07-18T07:12:41;33.50;29.10
9118;DHT22;4594;50.994;7.126;2022-07-18T07:15:09;33.70;28.80
9118;DHT22;4594;50.994;7.126;2022-07-18T07:17:36;33.90;29.00
9118;DHT22;4594;50.994;7.126;2022-07-18T07:20:04;34.10;28.90
9118;DHT22;4594;50.994;7.126;2022-07-18T07:22:40;34.40;28.80
9118;DHT22;4594;50.994;7.126;2022-07-18T07:25:13;34.60;28.70
9118;DHT22;4594;50.994;7.126;2022-07-18T07:27:40;34.70;28.70
9118;DHT22;4594;50.994;7.126;2022-07-18T07:30:07;34.90;28.70
9118;DHT22;4594;50.994;7.126;2022-07-18T07:32:39;35.20;28.70
9118;DHT22;4594;50.994;7.126;2022-07-18T07:35:07;35.30;28.50
9118;DHT22;4594;50.994;7.126;2022-07-18T07:37:44;35.70;28.80
9118;DHT22;4594;50.994;7.126;2022-07-18T07:40:12;36.00;28.60
9118;DHT22;4594;50.994;7.126;2022-07-18T07:42:39;36.30;28.70
9118;DHT22;4594;50.994;7.126;2022-07-18T07:45:06;36.60;28.70
9118;DHT22;4594;50.994;7.126;2022-07-18T07:47:32;36.90;28.60
9118;DHT22;4594;50.994;7.126;2022-07-18T07:50:00;37.20;28.50
9118;DHT22;4594;50.994;7.126;2022-07-18T07:52:25;37.50;28.50
9118;DHT22;4594;50.994;7.126;2022-07-18T07:54:53;37.80;28.50
9118;DHT22;4594;50.994;7.126;2022-07-18T07:57:19;38.10;28.40
9118;DHT22;4594;50.994;7.126;2022-07-18T07:59:45;38.40;28.30
9118;DHT22;4594;50.994;7.126;2022-07-18T08:02:11;38.70;28.30
9118;DHT22;4594;50.994;7.126;2022-07-18T08:04:37;39.00;28.20
9118;DHT22;4594;50.994;7.126;2022-07-18T08:07:03;39.20;28.20
9118;DHT22;4594;50.994;7.126;2022-07-18T08:09:29;39.50;28.20
9118;DHT22;4594;50.994;7.126;2022-07-18T08:11:55;39.90;28.10
9118;DHT22;4594;50.994;7.126;2022-07-18T08:14:20;40.10;27.90
9118;DHT22;4594;50.994;7.126;2022-07-18T08:16:46;40.20;27.80
9118;DHT22;4594;50.994;7.126;2022-07-18T08:19:12;40.50;27.80
9118;DHT22;4594;50.994;7.126;2022-07-18T08:21:38;40.70;27.70
9118;DHT22;4594;50.994;7.126;2022-07-18T08:24:04;40.80;27.50
9118;DHT22;4594;50.994;7.126;2022-07-18T08:26:30;40.90;27.40
9118;DHT22;4594;50.994;7.126;2022-07-18T08:28:55;40.90;27.30
9118;DHT22;4594;50.994;7.126;2022-07-18T08:31:21;41.00;27.30
9118;DHT22;4594;50.994;7.126;2022-07-18T08:33:48;41.00;27.30
9118;DHT22;4594;50.994;7.126;2022-07-18T08:36:14;41.10;27.20
9118;DHT22;4594;50.994;7.126;2022-07-18T08:38:40;41.20;27.30
9118;DHT22;4594;50.994;7.126;2022-07-18T08:41:06;41.30;27.30
9118;DHT22;4594;50.994;7.126;2022-07-18T08:43:32;41.40;27.20
9118;DHT22;4594;50.994;7.126;2022-07-18T08:46:05;41.60;27.30
9118;DHT22;4594;50.994;7.126;2022-07-18T08:48:32;41.90;27.20
9118;DHT22;4594;50.994;7.126;2022-07-18T08:50:59;42.10;27.40
9118;DHT22;4594;50.994;7.126;2022-07-18T08:53:26;42.40;27.30
9118;DHT22;4594;50.994;7.126;2022-07-18T08:55:52;42.70;27.30
9118;DHT22;4594;50.994;7.126;2022-07-18T08:58:18;43.00;27.20
9118;DHT22;4594;50.994;7.126;2022-07-18T09:00:45;43.20;27.20
9118;DHT22;4594;50.994;7.126;2022-07-18T09:03:11;43.40;27.10
9118;DHT22;4594;50.994;7.126;2022-07-18T09:05:38;43.60;27.10
9118;DHT22;4594;50.994;7.126;2022-07-18T09:08:19;43.80;27.20
9118;DHT22;4594;50.994;7.126;2022-07-18T09:10:50;44.20;26.80
9118;DHT22;4594;50.994;7.126;2022-07-18T09:13:19;44.40;26.80
9118;DHT22;4594;50.994;7.126;2022-07-18T09:16:01;44.60;26.90
9118;DHT22;4594;50.994;7.126;2022-07-18T09:18:34;44.80;26.80
9118;DHT22;4594;50.994;7.126;2022-07-18T09:21:16;45.00;26.70
9118;DHT22;4594;50.994;7.126;2022-07-18T09:23:51;45.20;26.50
9118;DHT22;4594;50.994;7.126;2022-07-18T09:26:38;45.40;26.70
9118;DHT22;4594;50.994;7.126;2022-07-18T09:29:06;45.50;26.50
9118;DHT22;4594;50.994;7.126;2022-07-18T09:31:33;45.70;26.60
9118;DHT22;4594;50.994;7.126;2022-07-18T09:34:01;45.80;26.60
9118;DHT22;4594;50.994;7.126;2022-07-18T09:36:29;46.00;26.60
9118;DHT22;4594;50.994;7.126;2022-07-18T09:38:58;46.00;26.50
9118;DHT22;4594;50.994;7.126;2022-07-18T09:41:30;46.10;26.50
9118;DHT22;4594;50.994;7.126;2022-07-18T09:43:58;46.30;26.40
9118;DHT22;4594;50.994;7.126;2022-07-18T09:46:24;46.40;26.40
9118;DHT22;4594;50.994;7.126;2022-07-18T09:49:09;46.60;26.30
9118;DHT22;4594;50.994;7.126;2022-07-18T09:51:35;46.70;26.20
9118;DHT22;4594;50.994;7.126;2022-07-18T09:54:01;46.80;26.40
9118;DHT22;4594;50.994;7.126;2022-07-18T09:56:30;46.90;26.40
9118;DHT22;4594;50.994;7.126;2022-07-18T09:58:58;47.10;26.10
9118;DHT22;4594;50.994;7.126;2022-07-18T10:01:25;47.10;26.10
9118;DHT22;4594;50.994;7.126;2022-07-18T10:03:51;47.10;26.10
9118;DHT22;4594;50.994;7.126;2022-07-18T10:06:18;47.10;26.10
9118;DHT22;4594;50.994;7.126;2022-07-18T10:08:44;47.20;26.00
9118;DHT22;4594;50.994;7.126;2022-07-18T10:11:10;47.30;26.00
9118;DHT22;4594;50.994;7.126;2022-07-18T10:13:37;47.40;26.10
9118;DHT22;4594;50.994;7.126;2022-07-18T10:16:04;47.40;26.00
9118;DHT22;4594;50.994;7.126;2022-07-18T10:18:32;47.50;26.10
9118;DHT22;4594;50.994;7.126;2022-07-18T10:21:04;47.50;25.80
9118;DHT22;4594;50.994;7.126;2022-07-18T10:26:25;47.40;25.50
9118;DHT22;4594;50.994;7.126;2022-07-18T10:31:40;47.40;25.50
9118;DHT22;4594;50.994;7.126;2022-07-18T10:34:31;47.40;25.60
9118;DHT22;4594;50.994;7.126;2022-07-18T10:39:52;47.30;25.60
9118;DHT22;4594;50.994;7.126;2022-07-18T10:42:21;47.20;25.40
9118;DHT22;4594;50.994;7.126;2022-07-18T10:44:49;47.20;25.50
9118;DHT22;4594;50.994;7.126;2022-07-18T10:47:17;47.10;25.50
9118;DHT22;4594;50.994;7.126;2022-07-18T11:00:08;46.80;25.30
9118;DHT22;4594;50.994;7.126;2022-07-18T11:02:38;46.70;25.20
9118;DHT22;4594;50.994;7.126;2022-07-18T11:21:34;46.00;24.90
9118;DHT22;4594;50.994;7.126;2022-07-18T11:24:02;46.00;25.00
9118;DHT22;4594;50.994;7.126;2022-07-18T11:26:30;45.90;25.00
9118;DHT22;4594;50.994;7.126;2022-07-18T11:29:05;45.90;24.90
9118;DHT22;4594;50.994;7.126;2022-07-18T11:32:00;45.70;24.70
9118;DHT22;4594;50.994;7.126;2022-07-18T11:34:28;45.50;24.80
9118;DHT22;4594;50.994;7.126;2022-07-18T11:36:54;45.30;24.80
9118;DHT22;4594;50.994;7.126;2022-07-18T11:39:30;45.10;24.90
9118;DHT22;4594;50.994;7.126;2022-07-18T11:41:57;44.90;24.70
9118;DHT22;4594;50.994;7.126;2022-07-18T11:44:23;44.80;24.80
9118;DHT22;4594;50.994;7.126;2022-07-18T11:47:03;44.50;24.80
9118;DHT22;4594;50.994;7.126;2022-07-18T11:49:35;44.30;24.70
9118;DHT22;4594;50.994;7.126;2022-07-18T11:52:02;44.00;24.90
9118;DHT22;4594;50.994;7.126;2022-07-18T11:54:29;43.70;24.60
9118;DHT22;4594;50.994;7.126;2022-07-18T11:56:55;43.30;24.40
9118;DHT22;4594;50.994;7.126;2022-07-18T11:59:22;42.90;24.30
9118;DHT22;4594;50.994;7.126;2022-07-18T12:01:48;42.60;24.40
9118;DHT22;4594;50.994;7.126;2022-07-18T12:04:20;42.20;24.30
9118;DHT22;4594;50.994;7.126;2022-07-18T12:07:20;41.80;24.20
9118;DHT22;4594;50.994;7.126;2022-07-18T12:09:51;41.40;24.30
9118;DHT22;4594;50.994;7.126;2022-07-18T12:12:19;41.00;24.20
9118;DHT22;4594;50.994;7.126;2022-07-18T12:15:00;40.70;24.20
9118;DHT22;4594;50.994;7.126;2022-07-18T12:17:28;40.30;24.20
9118;DHT22;4594;50.994;7.126;2022-07-18T12:20:11;40.10;24.40
9118;DHT22;4594;50.994;7.126;2022-07-18T12:23:05;39.80;24.20
9118;DHT22;4594;50.994;7.126;2022-07-18T12:25:54;39.50;24.00
9118;DHT22;4594;50.994;7.126;2022-07-18T12:28:21;39.20;24.20
9118;DHT22;4594;50.994;7.126;2022-07-18T12:30:47;38.90;24.10
9118;DHT22;4594;50.994;7.126;2022-07-18T12:33:13;38.70;24.00
9118;DHT22;4594;50.994;7.126;2022-07-18T12:35:39;38.40;24.00
9118;DHT22;4594;50.994;7.126;2022-07-18T12:43:36;37.80;24.20
9118;DHT22;4594;50.994;7.126;2022-07-18T12:46:07;37.60;24.30
9118;DHT22;4594;50.994;7.126;2022-07-18T12:48:36;37.50;24.30
9118;DHT22;4594;50.994;7.126;2022-07-18T12:51:05;37.30;24.30
9118;DHT22;4594;50.994;7.126;2022-07-18T12:53:35;37.30;24.30
9118;DHT22;4594;50.994;7.126;2022-07-18T12:56:03;37.20;24.30
9118;DHT22;4594;50.994;7.126;2022-07-18T12:58:29;37.20;24.40
9118;DHT22;4594;50.994;7.126;2022-07-18T13:00:55;37.20;24.40
9118;DHT22;4594;50.994;7.126;2022-07-18T13:03:21;37.10;24.40
9118;DHT22;4594;50.994;7.126;2022-07-18T13:05:48;37.10;24.40
9118;DHT22;4594;50.994;7.126;2022-07-18T13:08:14;37.10;24.20
9118;DHT22;4594;50.994;7.126;2022-07-18T13:10:41;37.00;24.20
9118;DHT22;4594;50.994;7.126;2022-07-18T13:13:08;36.90;24.20
9118;DHT22;4594;50.994;7.126;2022-07-18T13:15:34;36.80;24.20
9118;DHT22;4594;50.994;7.126;2022-07-18T13:18:01;36.80;24.30
9118;DHT22;4594;50.994;7.126;2022-07-18T13:20:28;36.70;24.20
9118;DHT22;4594;50.994;7.126;2022-07-18T13:22:55;36.70;24.30
9118;DHT22;4594;50.994;7.126;2022-07-18T13:25:21;36.60;24.50
9118;DHT22;4594;50.994;7.126;2022-07-18T13:27:48;36.50;24.30
9118;DHT22;4594;50.994;7.126;2022-07-18T13:30:15;36.50;24.40
9118;DHT22;4594;50.994;7.126;2022-07-18T13:32:40;36.40;24.30
9118;DHT22;4594;50.994;7.126;2022-07-18T13:35:10;36.30;24.40
9118;DHT22;4594;50.994;7.126;2022-07-18T13:37:37;36.30;24.50
9118;DHT22;4594;50.994;7.126;2022-07-18T13:40:03;36.20;24.40
9118;DHT22;4594;50.994;7.126;2022-07-18T13:42:31;36.20;24.40
9118;DHT22;4594;50.994;7.126;2022-07-18T13:44:57;36.10;24.40
9118;DHT22;4594;50.994;7.126;2022-07-18T13:47:24;36.00;24.40
9118;DHT22;4594;50.994;7.126;2022-07-18T13:49:50;35.90;24.40
9118;DHT22;4594;50.994;7.126;2022-07-18T13:52:16;35.90;24.40
9118;DHT22;4594;50.994;7.126;2022-07-18T13:54:42;35.80;24.40
9118;DHT22;4594;50.994;7.126;2022-07-18T13:57:08;35.70;24.40
9118;DHT22;4594;50.994;7.126;2022-07-18T13:59:34;35.70;24.40
9118;DHT22;4594;50.994;7.126;2022-07-18T14:01:59;35.60;24.40
9118;DHT22;4594;50.994;7.126;2022-07-18T14:04:25;35.50;24.40
9118;DHT22;4594;50.994;7.126;2022-07-18T14:06:51;35.40;24.30
9118;DHT22;4594;50.994;7.126;2022-07-18T14:09:17;35.40;24.40
9118;DHT22;4594;50.994;7.126;2022-07-18T14:11:42;35.30;24.40
9118;DHT22;4594;50.994;7.126;2022-07-18T14:14:08;35.20;24.40
9118;DHT22;4594;50.994;7.126;2022-07-18T14:16:34;35.10;24.50
9118;DHT22;4594;50.994;7.126;2022-07-18T14:19:01;35.10;24.50
9118;DHT22;4594;50.994;7.126;2022-07-18T14:21:26;34.90;24.60
9118;DHT22;4594;50.994;7.126;2022-07-18T14:23:52;34.90;24.70
9118;DHT22;4594;50.994;7.126;2022-07-18T14:26:18;34.80;24.60
9118;DHT22;4594;50.994;7.126;2022-07-18T14:28:43;34.80;24.70
9118;DHT22;4594;50.994;7.126;2022-07-18T14:31:09;34.80;24.80
9118;DHT22;4594;50.994;7.126;2022-07-18T14:33:35;34.80;24.80
9118;DHT22;4594;50.994;7.126;2022-07-18T14:36:00;34.80;25.00
9118;DHT22;4594;50.994;7.126;2022-07-18T14:38:26;34.70;24.70
9118;DHT22;4594;50.994;7.126;2022-07-18T14:40:52;34.70;24.70
9118;DHT22;4594;50.994;7.126;2022-07-18T14:43:18;34.70;24.70
9118;DHT22;4594;50.994;7.126;2022-07-18T14:45:44;34.70;24.80
9118;DHT22;4594;50.994;7.126;2022-07-18T14:48:10;34.70;24.80
9118;DHT22;4594;50.994;7.126;2022-07-18T14:50:35;34.70;24.80
9118;DHT22;4594;50.994;7.126;2022-07-18T14:53:01;34.70;24.80
9118;DHT22;4594;50.994;7.126;2022-07-18T14:55:27;34.70;24.80
9118;DHT22;4594;50.994;7.126;2022-07-18T14:57:53;34.70;24.80
9118;DHT22;4594;50.994;7.126;2022-07-18T15:00:19;34.70;24.80
9118;DHT22;4594;50.994;7.126;2022-07-18T15:02:45;34.70;24.80
9118;DHT22;4594;50.994;7.126;2022-07-18T15:05:10;34.70;24.80
9118;DHT22;4594;50.994;7.126;2022-07-18T15:07:36;34.70;25.10
9118;DHT22;4594;50.994;7.126;2022-07-18T15:10:03;34.70;24.90
9118;DHT22;4594;50.994;7.126;2022-07-18T15:12:29;34.70;24.90
9118;DHT22;4594;50.994;7.126;2022-07-18T15:14:57;34.60;25.00
9118;DHT22;4594;50.994;7.126;2022-07-18T15:17:24;34.60;25.00
9118;DHT22;4594;50.994;7.126;2022-07-18T15:19:50;34.50;25.00
9118;DHT22;4594;50.994;7.126;2022-07-18T15:22:16;34.50;25.00
9118;DHT22;4594;50.994;7.126;2022-07-18T15:24:42;34.50;25.00
9118;DHT22;4594;50.994;7.126;2022-07-18T15:27:07;34.40;25.00
9118;DHT22;4594;50.994;7.126;2022-07-18T15:29:33;34.40;25.00
9118;DHT22;4594;50.994;7.126;2022-07-18T15:31:59;34.30;25.00
9118;DHT22;4594;50.994;7.126;2022-07-18T15:34:25;34.30;25.00
9118;DHT22;4594;50.994;7.126;2022-07-18T15:36:51;34.30;25.00
9118;DHT22;4594;50.994;7.126;2022-07-18T15:39:17;34.30;25.10
9118;DHT22;4594;50.994;7.126;2022-07-18T15:41:42;34.20;25.00
9118;DHT22;4594;50.994;7.126;2022-07-18T15:44:09;34.20;25.10
9118;DHT22;4594;50.994;7.126;2022-07-18T15:46:36;34.20;25.10
9118;DHT22;4594;50.994;7.126;2022-07-18T15:51:03;34.20;25.10
9118;DHT22;4594;50.994;7.126;2022-07-18T15:53:29;34.20;25.00
9118;DHT22;4594;50.994;7.126;2022-07-18T15:55:54;34.20;24.90
9118;DHT22;4594;50.994;7.126;2022-07-18T15:58:20;34.20;24.90
9118;DHT22;4594;50.994;7.126;2022-07-18T16:00:45;34.20;24.90
9118;DHT22;4594;50.994;7.126;2022-07-18T16:03:11;34.20;24.90
9118;DHT22;4594;50.994;7.126;2022-07-18T16:05:37;34.20;24.90
9118;DHT22;4594;50.994;7.126;2022-07-18T16:08:02;34.10;24.90
9118;DHT22;4594;50.994;7.126;2022-07-18T16:10:28;34.10;24.80
9118;DHT22;4594;50.994;7.126;2022-07-18T16:12:54;34.10;24.90
9118;DHT22;4594;50.994;7.126;2022-07-18T16:15:20;34.00;24.80
9118;DHT22;4594;50.994;7.126;2022-07-18T16:17:45;34.00;24.80
9118;DHT22;4594;50.994;7.126;2022-07-18T16:20:11;34.00;24.90
9118;DHT22;4594;50.994;7.126;2022-07-18T16:22:40;33.90;24.80
9118;DHT22;4594;50.994;7.126;2022-07-18T16:25:09;33.90;24.80
9118;DHT22;4594;50.994;7.126;2022-07-18T16:27:35;33.90;24.90
9118;DHT22;4594;50.994;7.126;2022-07-18T16:30:01;33.90;24.90
9118;DHT22;4594;50.994;7.126;2022-07-18T16:32:26;33.80;24.80
9118;DHT22;4594;50.994;7.126;2022-07-18T16:34:52;33.80;24.80
9118;DHT22;4594;50.994;7.126;2022-07-18T16:37:18;33.80;24.80
9118;DHT22;4594;50.994;7.126;2022-07-18T16:39:43;33.70;24.80
9118;DHT22;4594;50.994;7.126;2022-07-18T16:42:09;33.70;24.70
9118;DHT22;4594;50.994;7.126;2022-07-18T16:44:35;33.70;24.80
9118;DHT22;4594;50.994;7.126;2022-07-18T16:47:01;33.70;24.80
9118;DHT22;4594;50.994;7.126;2022-07-18T16:49:27;33.70;25.00